sensor_id;sensor_type;location;lat;lon;timestamp;temperature;humidity
2867;DHT22;1441;48.886;8.728;2023-03-24T00:02:17;13.20;96.10
2867;DHT22;1441;48.886;8.728;2023-03-24T00:04:43;13.10;96.70
2867;DHT22;1441;48.886;8.728;2023-03-24T00:07:09;13.10;96.70
2867;DHT22;1441;48.886;8.728;2023-03-24T00:09:44;13.00;96.80
2867;DHT22;1441;48.886;8.728;2023-03-24T00:12:11;13.00;97.30
2867;DHT22;1441;48.886;8.728;2023-03-24T00:14:38;13.00;97.00
2867;DHT22;1441;48.886;8.728;2023-03-24T00:17:07;12.90;97.30
2867;DHT22;1441;48.886;8.728;2023-03-24T00:19:42;13.00;97.20
2867;DHT22;1441;48.886;8.728;2023-03-24T00:22:11;13.00;97.50
2867;DHT22;1441;48.886;8.728;2023-03-24T00:24:40;13.00;97.00
2867;DHT22;1441;48.886;8.728;2023-03-24T00:27:06;13.00;96.90
2867;DHT22;1441;48.886;8.728;2023-03-24T00:29:32;13.00;96.60
2867;DHT22;1441;48.886;8.728;2023-03-24T00:31:58;13.00;96.10
2867;DHT22;1441;48.886;8.728;2023-03-24T00:34:24;13.00;96.20
2867;DHT22;1441;48.886;8.728;2023-03-24T00:36:50;13.00;96.20
2867;DHT22;1441;48.886;8.728;2023-03-24T00:39:18;13.10;95.90
2867;DHT22;1441;48.886;8.728;2023-03-24T00:41:44;13.10;95.90
2867;DHT22;1441;48.886;8.728;2023-03-24T00:44:11;13.10;94.80
2867;DHT22;1441;48.886;8.728;2023-03-24T00:47:03;13.10;94.90
2867;DHT22;1441;48.886;8.728;2023-03-24T00:49:29;13.10;95.20
2867;DHT22;1441;48.886;8.728;2023-03-24T00:52:13;13.00;95.40
2867;DHT22;1441;48.886;8.728;2023-03-24T00:54:40;13.00;95.30
2867;DHT22;1441;48.886;8.728;2023-03-24T00:57:09;13.00;95.00
2867;DHT22;1441;48.886;8.728;2023-03-24T00:59:37;13.10;94.90
2867;DHT22;1441;48.886;8.728;2023-03-24T01:02:08;13.10;94.70
2867;DHT22;1441;48.886;8.728;2023-03-24T01:04:39;13.10;94.70
2867;DHT22;1441;48.886;8.728;2023-03-24T01:07:06;13.10;94.30
2867;DHT22;1441;48.886;8.728;2023-03-24T01:09:35;13.10;94.30
2867;DHT22;1441;48.886;8.728;2023-03-24T01:12:02;13.10;94.40
2867;DHT22;1441;48.886;8.728;2023-03-24T01:14:29;13.00;95.00
2867;DHT22;1441;48.886;8.728;2023-03-24T01:16:55;13.00;95.20
2867;DHT22;1441;48.886;8.728;2023-03-24T01:19:21;13.00;95.30
2867;DHT22;1441;48.886;8.728;2023-03-24T01:21:47;13.00;95.10
2867;DHT22;1441;48.886;8.728;2023-03-24T01:24:16;12.90;95.40
2867;DHT22;1441;48.886;8.728;2023-03-24T01:26:42;13.00;94.80
2867;DHT22;1441;48.886;8.728;2023-03-24T01:29:08;13.00;94.80
2867;DHT22;1441;48.886;8.728;2023-03-24T01:31:34;13.00;94.80
2867;DHT22;1441;48.886;8.728;2023-03-24T01:34:01;13.00;95.30
2867;DHT22;1441;48.886;8.728;2023-03-24T01:36:26;13.10;94.20
2867;DHT22;1441;48.886;8.728;2023-03-24T01:38:52;13.10;94.00
2867;DHT22;1441;48.886;8.728;2023-03-24T01:41:18;13.10;93.70
2867;DHT22;1441;48.886;8.728;2023-03-24T01:43:43;13.10;93.90
2867;DHT22;1441;48.886;8.728;2023-03-24T01:49:05;13.00;94.40
2867;DHT22;1441;48.886;8.728;2023-03-24T01:51:38;13.00;94.40
2867;DHT22;1441;48.886;8.728;2023-03-24T01:56:36;12.90;94.80
2867;DHT22;1441;48.886;8.728;2023-03-24T01:59:07;12.90;94.70
2867;DHT22;1441;48.886;8.728;2023-03-24T02:01:35;12.90;94.70
2867;DHT22;1441;48.886;8.728;2023-03-24T02:04:02;13.00;94.40
2867;DHT22;1441;48.886;8.728;2023-03-24T02:06:31;13.00;94.30
2867;DHT22;1441;48.886;8.728;2023-03-24T02:08:58;12.90;94.40
2867;DHT22;1441;48.886;8.728;2023-03-24T02:11:28;12.90;94.80
2867;DHT22;1441;48.886;8.728;2023-03-24T02:13:55;12.90;94.80
2867;DHT22;1441;48.886;8.728;2023-03-24T02:25:26;12.60;95.70
2867;DHT22;1441;48.886;8.728;2023-03-24T02:52:52;12.80;96.80
2867;DHT22;1441;48.886;8.728;2023-03-24T02:55:30;12.80;96.90
2867;DHT22;1441;48.886;8.728;2023-03-24T02:58:06;12.80;97.50
2867;DHT22;1441;48.886;8.728;2023-03-24T03:01:01;12.90;97.00
2867;DHT22;1441;48.886;8.728;2023-03-24T03:03:50;13.00;96.80
2867;DHT22;1441;48.886;8.728;2023-03-24T03:06:27;13.00;97.50
2867;DHT22;1441;48.886;8.728;2023-03-24T03:08:55;13.00;98.00
2867;DHT22;1441;48.886;8.728;2023-03-24T03:11:22;13.00;97.80
2867;DHT22;1441;48.886;8.728;2023-03-24T03:13:53;13.00;97.70
2867;DHT22;1441;48.886;8.728;2023-03-24T03:16:34;13.00;97.80
2867;DHT22;1441;48.886;8.728;2023-03-24T03:19:16;12.90;97.70
2867;DHT22;1441;48.886;8.728;2023-03-24T03:21:44;13.00;97.40
2867;DHT22;1441;48.886;8.728;2023-03-24T03:24:34;13.00;97.40
2867;DHT22;1441;48.886;8.728;2023-03-24T03:27:06;13.00;97.40
2867;DHT22;1441;48.886;8.728;2023-03-24T03:29:38;13.00;97.10
2867;DHT22;1441;48.886;8.728;2023-03-24T03:32:06;13.10;96.90
2867;DHT22;1441;48.886;8.728;2023-03-24T03:34:40;13.10;97.00
2867;DHT22;1441;48.886;8.728;2023-03-24T03:39:48;13.10;97.30
2867;DHT22;1441;48.886;8.728;2023-03-24T03:42:16;13.20;97.20
2867;DHT22;1441;48.886;8.728;2023-03-24T03:44:43;13.10;97.40
2867;DHT22;1441;48.886;8.728;2023-03-24T03:47:08;13.20;96.70
2867;DHT22;1441;48.886;8.728;2023-03-24T03:49:35;13.20;96.20
2867;DHT22;1441;48.886;8.728;2023-03-24T03:52:01;13.30;95.50
2867;DHT22;1441;48.886;8.728;2023-03-24T03:54:28;13.30;96.10
2867;DHT22;1441;48.886;8.728;2023-03-24T03:56:55;13.20;96.20
2867;DHT22;1441;48.886;8.728;2023-03-24T03:59:30;13.10;96.90
2867;DHT22;1441;48.886;8.728;2023-03-24T04:07:23;12.70;98.40
2867;DHT22;1441;48.886;8.728;2023-03-24T04:10:21;12.70;98.60
2867;DHT22;1441;48.886;8.728;2023-03-24T04:15:38;12.60;98.10
2867;DHT22;1441;48.886;8.728;2023-03-24T04:26:34;12.40;98.60
2867;DHT22;1441;48.886;8.728;2023-03-24T04:29:17;12.40;98.50
2867;DHT22;1441;48.886;8.728;2023-03-24T04:32:00;12.40;98.30
2867;DHT22;1441;48.886;8.728;2023-03-24T04:34:37;12.50;98.40
2867;DHT22;1441;48.886;8.728;2023-03-24T04:37:17;12.60;98.00
2867;DHT22;1441;48.886;8.728;2023-03-24T04:39:45;12.60;98.10
2867;DHT22;1441;48.886;8.728;2023-03-24T04:42:20;12.50;99.00
2867;DHT22;1441;48.886;8.728;2023-03-24T04:44:47;12.50;99.90
2867;DHT22;1441;48.886;8.728;2023-03-24T04:47:18;12.40;99.90
2867;DHT22;1441;48.886;8.728;2023-03-24T04:49:44;12.40;99.90
2867;DHT22;1441;48.886;8.728;2023-03-24T04:52:10;12.40;99.90
2867;DHT22;1441;48.886;8.728;2023-03-24T04:54:35;12.30;99.90
2867;DHT22;1441;48.886;8.728;2023-03-24T04:57:01;12.40;99.90
2867;DHT22;1441;48.886;8.728;2023-03-24T04:59:30;12.40;99.90
2867;DHT22;1441;48.886;8.728;2023-03-24T05:01:59;12.30;99.90
2867;DHT22;1441;48.886;8.728;2023-03-24T05:04:25;12.30;99.90
2867;DHT22;1441;48.886;8.728;2023-03-24T05:06:55;12.30;99.90
2867;DHT22;1441;48.886;8.728;2023-03-24T05:09:24;12.30;99.90
2867;DHT22;1441;48.886;8.728;2023-03-24T05:11:50;12.30;99.90
2867;DHT22;1441;48.886;8.728;2023-03-24T05:14:16;12.20;99.90
2867;DHT22;1441;48.886;8.728;2023-03-24T05:16:42;12.20;99.90
2867;DHT22;1441;48.886;8.728;2023-03-24T05:19:07;12.20;99.90
2867;DHT22;1441;48.886;8.728;2023-03-24T05:21:33;12.10;99.90
2867;DHT22;1441;48.886;8.728;2023-03-24T05:23:59;12.10;99.90
2867;DHT22;1441;48.886;8.728;2023-03-24T05:26:25;12.10;99.90
2867;DHT22;1441;48.886;8.728;2023-03-24T05:28:52;12.00;99.90
2867;DHT22;1441;48.886;8.728;2023-03-24T05:31:18;11.90;99.90
2867;DHT22;1441;48.886;8.728;2023-03-24T05:33:44;11.90;99.90
2867;DHT22;1441;48.886;8.728;2023-03-24T05:36:10;11.90;99.90
2867;DHT22;1441;48.886;8.728;2023-03-24T05:38:36;11.90;99.90
2867;DHT22;1441;48.886;8.728;2023-03-24T05:41:02;11.90;99.90
2867;DHT22;1441;48.886;8.728;2023-03-24T05:43:28;11.90;99.90
2867;DHT22;1441;48.886;8.728;2023-03-24T05:45:53;11.90;99.90
2867;DHT22;1441;48.886;8.728;2023-03-24T05:48:20;11.80;99.90
2867;DHT22;1441;48.886;8.728;2023-03-24T05:50:46;11.90;99.90
2867;DHT22;1441;48.886;8.728;2023-03-24T05:53:12;11.90;99.90
2867;DHT22;1441;48.886;8.728;2023-03-24T05:55:37;12.10;99.90
2867;DHT22;1441;48.886;8.728;2023-03-24T05:58:05;12.30;99.90
2867;DHT22;1441;48.886;8.728;2023-03-24T06:00:31;12.40;99.90
2867;DHT22;1441;48.886;8.728;2023-03-24T06:02:58;12.40;99.90
2867;DHT22;1441;48.886;8.728;2023-03-24T06:05:25;12.50;99.90
2867;DHT22;1441;48.886;8.728;2023-03-24T06:07:50;12.60;99.90
2867;DHT22;1441;48.886;8.728;2023-03-24T06:10:16;12.60;99.90
2867;DHT22;1441;48.886;8.728;2023-03-24T06:12:44;12.50;99.90
2867;DHT22;1441;48.886;8.728;2023-03-24T06:15:10;12.60;99.90
2867;DHT22;1441;48.886;8.728;2023-03-24T06:17:36;12.80;99.90
2867;DHT22;1441;48.886;8.728;2023-03-24T06:20:03;12.80;99.90
2867;DHT22;1441;48.886;8.728;2023-03-24T06:22:33;12.80;99.90
2867;DHT22;1441;48.886;8.728;2023-03-24T06:24:59;13.00;99.90
2867;DHT22;1441;48.886;8.728;2023-03-24T06:27:25;13.00;99.90
2867;DHT22;1441;48.886;8.728;2023-03-24T06:29:58;12.90;99.90
2867;DHT22;1441;48.886;8.728;2023-03-24T06:32:25;13.00;99.90
2867;DHT22;1441;48.886;8.728;2023-03-24T06:34:51;12.90;99.90
2867;DHT22;1441;48.886;8.728;2023-03-24T06:37:17;12.90;99.90
2867;DHT22;1441;48.886;8.728;2023-03-24T06:39:43;13.00;99.90
2867;DHT22;1441;48.886;8.728;2023-03-24T06:42:09;13.10;99.90
2867;DHT22;1441;48.886;8.728;2023-03-24T06:44:34;13.10;99.90
2867;DHT22;1441;48.886;8.728;2023-03-24T06:47:00;13.00;99.90
2867;DHT22;1441;48.886;8.728;2023-03-24T06:49:26;13.00;99.90
2867;DHT22;1441;48.886;8.728;2023-03-24T06:51:51;12.80;99.90
2867;DHT22;1441;48.886;8.728;2023-03-24T06:54:17;12.70;99.90
2867;DHT22;1441;48.886;8.728;2023-03-24T06:56:43;12.80;99.90
2867;DHT22;1441;48.886;8.728;2023-03-24T06:59:08;12.80;99.90
2867;DHT22;1441;48.886;8.728;2023-03-24T07:01:35;12.80;99.90
2867;DHT22;1441;48.886;8.728;2023-03-24T07:04:01;12.80;99.90
2867;DHT22;1441;48.886;8.728;2023-03-24T07:06:27;12.80;99.90
2867;DHT22;1441;48.886;8.728;2023-03-24T07:08:54;12.70;99.90
2867;DHT22;1441;48.886;8.728;2023-03-24T07:11:20;12.70;99.90
2867;DHT22;1441;48.886;8.728;2023-03-24T07:13:45;12.70;99.90
2867;DHT22;1441;48.886;8.728;2023-03-24T07:16:11;12.80;99.90
2867;DHT22;1441;48.886;8.728;2023-03-24T07:18:36;12.90;99.90
2867;DHT22;1441;48.886;8.728;2023-03-24T07:21:02;12.80;99.90
2867;DHT22;1441;48.886;8.728;2023-03-24T07:23:28;12.80;99.90
2867;DHT22;1441;48.886;8.728;2023-03-24T07:25:54;12.80;99.90
2867;DHT22;1441;48.886;8.728;2023-03-24T07:28:20;12.70;99.90
2867;DHT22;1441;48.886;8.728;2023-03-24T07:30:46;12.60;99.90
2867;DHT22;1441;48.886;8.728;2023-03-24T07:33:11;12.50;99.90
2867;DHT22;1441;48.886;8.728;2023-03-24T07:35:38;12.40;99.90
2867;DHT22;1441;48.886;8.728;2023-03-24T07:38:04;12.50;99.90
2867;DHT22;1441;48.886;8.728;2023-03-24T07:40:30;12.50;99.90
2867;DHT22;1441;48.886;8.728;2023-03-24T07:42:59;12.50;99.90
2867;DHT22;1441;48.886;8.728;2023-03-24T07:45:25;12.40;99.90
2867;DHT22;1441;48.886;8.728;2023-03-24T07:47:53;12.50;99.90
2867;DHT22;1441;48.886;8.728;2023-03-24T07:50:19;12.50;99.90
2867;DHT22;1441;48.886;8.728;2023-03-24T07:52:48;12.40;99.90
2867;DHT22;1441;48.886;8.728;2023-03-24T07:55:14;12.40;99.90
2867;DHT22;1441;48.886;8.728;2023-03-24T07:57:47;12.40;99.90
2867;DHT22;1441;48.886;8.728;2023-03-24T08:00:14;12.50;99.90
2867;DHT22;1441;48.886;8.728;2023-03-24T08:02:43;12.60;99.90
2867;DHT22;1441;48.886;8.728;2023-03-24T08:05:10;12.70;99.90
2867;DHT22;1441;48.886;8.728;2023-03-24T08:07:41;12.70;99.90
2867;DHT22;1441;48.886;8.728;2023-03-24T08:10:09;12.70;99.90
2867;DHT22;1441;48.886;8.728;2023-03-24T08:12:35;12.80;99.90
2867;DHT22;1441;48.886;8.728;2023-03-24T08:15:00;12.70;99.90
2867;DHT22;1441;48.886;8.728;2023-03-24T08:17:26;12.80;99.90
2867;DHT22;1441;48.886;8.728;2023-03-24T08:19:51;12.90;99.90
2867;DHT22;1441;48.886;8.728;2023-03-24T08:22:17;12.90;99.90
2867;DHT22;1441;48.886;8.728;2023-03-24T08:24:43;13.00;99.90
2867;DHT22;1441;48.886;8.728;2023-03-24T08:27:08;13.00;99.90
2867;DHT22;1441;48.886;8.728;2023-03-24T08:29:34;13.10;99.90
2867;DHT22;1441;48.886;8.728;2023-03-24T08:32:00;13.10;99.90
2867;DHT22;1441;48.886;8.728;2023-03-24T08:34:27;13.20;99.90
2867;DHT22;1441;48.886;8.728;2023-03-24T08:36:52;13.10;99.90
2867;DHT22;1441;48.886;8.728;2023-03-24T08:39:18;13.10;99.90
2867;DHT22;1441;48.886;8.728;2023-03-24T08:41:44;13.10;99.90
2867;DHT22;1441;48.886;8.728;2023-03-24T08:44:11;13.10;99.90
2867;DHT22;1441;48.886;8.728;2023-03-24T08:46:37;13.20;99.90
2867;DHT22;1441;48.886;8.728;2023-03-24T08:49:03;13.30;99.90
2867;DHT22;1441;48.886;8.728;2023-03-24T08:51:29;13.40;99.90
2867;DHT22;1441;48.886;8.728;2023-03-24T08:53:54;13.40;99.90
2867;DHT22;1441;48.886;8.728;2023-03-24T08:56:21;13.50;99.90
2867;DHT22;1441;48.886;8.728;2023-03-24T08:58:46;13.50;99.90
2867;DHT22;1441;48.886;8.728;2023-03-24T09:01:18;13.60;99.90
2867;DHT22;1441;48.886;8.728;2023-03-24T09:03:44;13.80;99.90
2867;DHT22;1441;48.886;8.728;2023-03-24T09:06:11;13.80;99.50
2867;DHT22;1441;48.886;8.728;2023-03-24T09:08:37;13.60;99.90
2867;DHT22;1441;48.886;8.728;2023-03-24T09:11:04;13.70;99.80
2867;DHT22;1441;48.886;8.728;2023-03-24T09:13:30;13.60;99.90
2867;DHT22;1441;48.886;8.728;2023-03-24T09:16:00;13.50;99.90
2867;DHT22;1441;48.886;8.728;2023-03-24T09:18:27;13.50;99.90
2867;DHT22;1441;48.886;8.728;2023-03-24T09:20:52;13.50;99.90
2867;DHT22;1441;48.886;8.728;2023-03-24T09:23:18;13.40;99.90
2867;DHT22;1441;48.886;8.728;2023-03-24T09:25:44;13.50;99.90
2867;DHT22;1441;48.886;8.728;2023-03-24T09:28:12;13.70;99.90
2867;DHT22;1441;48.886;8.728;2023-03-24T09:30:39;14.10;99.60
2867;DHT22;1441;48.886;8.728;2023-03-24T09:33:04;14.30;99.70
2867;DHT22;1441;48.886;8.728;2023-03-24T09:35:30;14.40;97.60
2867;DHT22;1441;48.886;8.728;2023-03-24T09:37:56;14.70;96.60
2867;DHT22;1441;48.886;8.728;2023-03-24T09:40:35;14.70;97.10
2867;DHT22;1441;48.886;8.728;2023-03-24T09:43:05;15.20;95.50
2867;DHT22;1441;48.886;8.728;2023-03-24T09:45:35;15.60;94.50
2867;DHT22;1441;48.886;8.728;2023-03-24T09:48:07;15.70;93.50
2867;DHT22;1441;48.886;8.728;2023-03-24T09:50:45;15.70;93.10
2867;DHT22;1441;48.886;8.728;2023-03-24T09:53:39;16.40;91.00
2867;DHT22;1441;48.886;8.728;2023-03-24T09:56:15;16.70;89.30
2867;DHT22;1441;48.886;8.728;2023-03-24T09:59:33;16.30;89.50
2867;DHT22;1441;48.886;8.728;2023-03-24T10:01:34;16.20;91.30
2867;DHT22;1441;48.886;8.728;2023-03-24T10:04:03;16.00;91.90
2867;DHT22;1441;48.886;8.728;2023-03-24T10:06:39;15.80;91.30
2867;DHT22;1441;48.886;8.728;2023-03-24T10:12:44;15.60;93.60
2867;DHT22;1441;48.886;8.728;2023-03-24T10:25:53;15.80;90.20
2867;DHT22;1441;48.886;8.728;2023-03-24T10:28:27;15.50;90.70
2867;DHT22;1441;48.886;8.728;2023-03-24T10:30:59;15.40;91.60
2867;DHT22;1441;48.886;8.728;2023-03-24T10:33:27;15.40;90.90
2867;DHT22;1441;48.886;8.728;2023-03-24T10:35:57;15.50;90.80
2867;DHT22;1441;48.886;8.728;2023-03-24T10:38:26;15.50;90.00
2867;DHT22;1441;48.886;8.728;2023-03-24T10:40:53;15.40;90.80
2867;DHT22;1441;48.886;8.728;2023-03-24T10:43:20;15.20;90.20
2867;DHT22;1441;48.886;8.728;2023-03-24T10:45:52;15.30;90.00
2867;DHT22;1441;48.886;8.728;2023-03-24T10:48:34;15.20;91.00
2867;DHT22;1441;48.886;8.728;2023-03-24T10:51:00;15.20;90.80
2867;DHT22;1441;48.886;8.728;2023-03-24T10:53:26;15.30;91.30
2867;DHT22;1441;48.886;8.728;2023-03-24T10:55:52;15.40;90.00
2867;DHT22;1441;48.886;8.728;2023-03-24T10:58:37;15.40;88.80
2867;DHT22;1441;48.886;8.728;2023-03-24T11:01:27;15.60;88.60
2867;DHT22;1441;48.886;8.728;2023-03-24T11:04:03;15.70;88.00
2867;DHT22;1441;48.886;8.728;2023-03-24T11:06:30;15.70;88.10
2867;DHT22;1441;48.886;8.728;2023-03-24T11:09:10;15.80;86.70
2867;DHT22;1441;48.886;8.728;2023-03-24T11:11:42;15.70;88.60
2867;DHT22;1441;48.886;8.728;2023-03-24T11:16:43;15.50;91.60
2867;DHT22;1441;48.886;8.728;2023-03-24T11:19:23;15.40;91.70
2867;DHT22;1441;48.886;8.728;2023-03-24T11:21:51;15.60;90.90
2867;DHT22;1441;48.886;8.728;2023-03-24T11:24:19;15.60;91.00
2867;DHT22;1441;48.886;8.728;2023-03-24T11:26:49;15.50;90.50
2867;DHT22;1441;48.886;8.728;2023-03-24T11:29:20;15.40;90.20
2867;DHT22;1441;48.886;8.728;2023-03-24T11:32:13;15.30;91.40
2867;DHT22;1441;48.886;8.728;2023-03-24T11:34:46;15.20;91.30
2867;DHT22;1441;48.886;8.728;2023-03-24T11:37:18;15.00;91.60
2867;DHT22;1441;48.886;8.728;2023-03-24T11:42:41;15.10;92.00
2867;DHT22;1441;48.886;8.728;2023-03-24T11:47:57;15.20;91.60
2867;DHT22;1441;48.886;8.728;2023-03-24T11:50:31;15.20;91.30
2867;DHT22;1441;48.886;8.728;2023-03-24T11:53:12;15.40;91.60
2867;DHT22;1441;48.886;8.728;2023-03-24T12:01:06;16.00;89.40
2867;DHT22;1441;48.886;8.728;2023-03-24T12:09:14;15.70;89.10
2867;DHT22;1441;48.886;8.728;2023-03-24T12:14:42;15.70;89.00
2867;DHT22;1441;48.886;8.728;2023-03-24T12:17:12;15.60;89.10
2867;DHT22;1441;48.886;8.728;2023-03-24T12:25:05;15.40;89.80
2867;DHT22;1441;48.886;8.728;2023-03-24T12:39:13;14.80;90.30
2867;DHT22;1441;48.886;8.728;2023-03-24T12:47:34;13.80;93.40
2867;DHT22;1441;48.886;8.728;2023-03-24T12:58:22;12.70;97.10
2867;DHT22;1441;48.886;8.728;2023-03-24T13:03:46;12.30;99.90
2867;DHT22;1441;48.886;8.728;2023-03-24T13:06:26;12.20;99.90
2867;DHT22;1441;48.886;8.728;2023-03-24T13:21:08;12.00;99.90
2867;DHT22;1441;48.886;8.728;2023-03-24T13:24:04;12.00;99.50
2867;DHT22;1441;48.886;8.728;2023-03-24T13:31:48;11.90;99.90
2867;DHT22;1441;48.886;8.728;2023-03-24T13:34:29;11.70;99.90
2867;DHT22;1441;48.886;8.728;2023-03-24T13:37:16;11.60;99.90
2867;DHT22;1441;48.886;8.728;2023-03-24T13:39:45;11.50;99.90
2867;DHT22;1441;48.886;8.728;2023-03-24T13:42:35;11.40;99.90
2867;DHT22;1441;48.886;8.728;2023-03-24T13:45:03;11.50;99.90
2867;DHT22;1441;48.886;8.728;2023-03-24T13:48:34;11.50;99.90
2867;DHT22;1441;48.886;8.728;2023-03-24T13:50:35;11.60;99.90
2867;DHT22;1441;48.886;8.728;2023-03-24T13:53:11;11.80;99.90
2867;DHT22;1441;48.886;8.728;2023-03-24T13:55:39;11.90;99.90
2867;DHT22;1441;48.886;8.728;2023-03-24T13:58:17;12.00;99.90
2867;DHT22;1441;48.886;8.728;2023-03-24T14:03:42;11.90;99.90
2867;DHT22;1441;48.886;8.728;2023-03-24T14:06:10;11.80;99.90
2867;DHT22;1441;48.886;8.728;2023-03-24T14:21:42;11.60;99.90
2867;DHT22;1441;48.886;8.728;2023-03-24T14:24:16;11.60;99.90
2867;DHT22;1441;48.886;8.728;2023-03-24T14:26:45;11.60;99.90
2867;DHT22;1441;48.886;8.728;2023-03-24T14:29:35;11.70;99.90
2867;DHT22;1441;48.886;8.728;2023-03-24T14:32:02;11.80;99.90
2867;DHT22;1441;48.886;8.728;2023-03-24T14:34:28;11.70;99.90
2867;DHT22;1441;48.886;8.728;2023-03-24T14:37:00;11.90;99.90
2867;DHT22;1441;48.886;8.728;2023-03-24T14:39:32;11.90;99.90
2867;DHT22;1441;48.886;8.728;2023-03-24T14:42:14;11.90;99.90
2867;DHT22;1441;48.886;8.728;2023-03-24T14:47:19;12.00;99.90
2867;DHT22;1441;48.886;8.728;2023-03-24T14:49:47;12.00;99.90
2867;DHT22;1441;48.886;8.728;2023-03-24T14:52:35;12.00;99.90
2867;DHT22;1441;48.886;8.728;2023-03-24T14:55:06;12.00;99.90
2867;DHT22;1441;48.886;8.728;2023-03-24T14:57:46;11.90;99.90
2867;DHT22;1441;48.886;8.728;2023-03-24T15:00:35;11.90;99.90
2867;DHT22;1441;48.886;8.728;2023-03-24T15:03:18;12.00;99.90
2867;DHT22;1441;48.886;8.728;2023-03-24T15:05:48;12.10;99.90
2867;DHT22;1441;48.886;8.728;2023-03-24T15:08:16;12.10;99.90
2867;DHT22;1441;48.886;8.728;2023-03-24T15:10:51;12.20;99.90
2867;DHT22;1441;48.886;8.728;2023-03-24T15:15:54;12.50;99.90
2867;DHT22;1441;48.886;8.728;2023-03-24T15:18:20;12.50;99.90
2867;DHT22;1441;48.886;8.728;2023-03-24T15:20:47;12.50;99.90
2867;DHT22;1441;48.886;8.728;2023-03-24T15:23:20;12.50;99.90
2867;DHT22;1441;48.886;8.728;2023-03-24T15:25:46;12.80;99.50
2867;DHT22;1441;48.886;8.728;2023-03-24T15:28:21;12.80;99.90
2867;DHT22;1441;48.886;8.728;2023-03-24T15:30:48;12.80;99.90
2867;DHT22;1441;48.886;8.728;2023-03-24T15:33:14;13.00;99.10
2867;DHT22;1441;48.886;8.728;2023-03-24T15:35:39;13.00;98.40
2867;DHT22;1441;48.886;8.728;2023-03-24T15:38:05;13.20;97.90
2867;DHT22;1441;48.886;8.728;2023-03-24T15:40:32;13.30;97.20
2867;DHT22;1441;48.886;8.728;2023-03-24T15:43:00;13.50;97.20
2867;DHT22;1441;48.886;8.728;2023-03-24T15:45:48;13.50;97.30
2867;DHT22;1441;48.886;8.728;2023-03-24T15:48:23;13.60;96.40
2867;DHT22;1441;48.886;8.728;2023-03-24T15:50:56;13.70;96.40
2867;DHT22;1441;48.886;8.728;2023-03-24T15:53:37;13.70;94.60
2867;DHT22;1441;48.886;8.728;2023-03-24T15:56:17;13.70;94.60
2867;DHT22;1441;48.886;8.728;2023-03-24T16:01:16;13.60;94.50
2867;DHT22;1441;48.886;8.728;2023-03-24T16:03:44;13.60;93.70
2867;DHT22;1441;48.886;8.728;2023-03-24T16:06:14;13.50;95.00
2867;DHT22;1441;48.886;8.728;2023-03-24T16:08:41;13.40;94.60
2867;DHT22;1441;48.886;8.728;2023-03-24T16:11:13;13.30;94.60
2867;DHT22;1441;48.886;8.728;2023-03-24T16:13:41;13.20;94.60
2867;DHT22;1441;48.886;8.728;2023-03-24T16:18:40;13.30;95.40
2867;DHT22;1441;48.886;8.728;2023-03-24T16:21:20;13.40;94.10
2867;DHT22;1441;48.886;8.728;2023-03-24T16:23:48;13.30;94.30
2867;DHT22;1441;48.886;8.728;2023-03-24T16:28:44;13.30;92.90
2867;DHT22;1441;48.886;8.728;2023-03-24T16:33:52;13.40;92.20
2867;DHT22;1441;48.886;8.728;2023-03-24T16:36:18;13.20;91.90
2867;DHT22;1441;48.886;8.728;2023-03-24T16:38:46;13.20;92.60
2867;DHT22;1441;48.886;8.728;2023-03-24T16:41:13;13.30;92.00
2867;DHT22;1441;48.886;8.728;2023-03-24T16:43:42;13.20;92.30
2867;DHT22;1441;48.886;8.728;2023-03-24T16:48:52;13.50;91.60
2867;DHT22;1441;48.886;8.728;2023-03-24T16:51:18;13.50;91.90
2867;DHT22;1441;48.886;8.728;2023-03-24T16:53:45;13.50;91.20
2867;DHT22;1441;48.886;8.728;2023-03-24T16:56:21;13.60;90.70
2867;DHT22;1441;48.886;8.728;2023-03-24T16:58:48;13.40;90.90
2867;DHT22;1441;48.886;8.728;2023-03-24T17:01:20;13.50;90.70
2867;DHT22;1441;48.886;8.728;2023-03-24T17:03:53;13.30;90.90
2867;DHT22;1441;48.886;8.728;2023-03-24T17:06:19;13.20;91.00
2867;DHT22;1441;48.886;8.728;2023-03-24T17:08:45;13.10;92.30
2867;DHT22;1441;48.886;8.728;2023-03-24T17:11:11;13.10;91.80
2867;DHT22;1441;48.886;8.728;2023-03-24T17:13:36;13.10;91.50
2867;DHT22;1441;48.886;8.728;2023-03-24T17:16:02;13.00;91.60
2867;DHT22;1441;48.886;8.728;2023-03-24T17:18:28;13.00;91.90
2867;DHT22;1441;48.886;8.728;2023-03-24T17:20:54;12.90;91.90
2867;DHT22;1441;48.886;8.728;2023-03-24T17:23:19;12.90;91.40
2867;DHT22;1441;48.886;8.728;2023-03-24T17:25:46;12.80;92.20
2867;DHT22;1441;48.886;8.728;2023-03-24T17:28:16;12.70;92.00
2867;DHT22;1441;48.886;8.728;2023-03-24T17:30:42;12.70;92.70
2867;DHT22;1441;48.886;8.728;2023-03-24T17:33:12;12.50;92.60
2867;DHT22;1441;48.886;8.728;2023-03-24T17:35:38;12.40;93.50
2867;DHT22;1441;48.886;8.728;2023-03-24T17:38:03;12.30;93.80
2867;DHT22;1441;48.886;8.728;2023-03-24T17:40:29;12.20;94.20
2867;DHT22;1441;48.886;8.728;2023-03-24T17:42:54;12.10;95.30
2867;DHT22;1441;48.886;8.728;2023-03-24T17:45:20;12.10;95.30
2867;DHT22;1441;48.886;8.728;2023-03-24T17:47:46;12.10;95.50
2867;DHT22;1441;48.886;8.728;2023-03-24T17:50:12;12.00;95.90
2867;DHT22;1441;48.886;8.728;2023-03-24T17:52:44;12.10;94.50
2867;DHT22;1441;48.886;8.728;2023-03-24T17:55:11;12.20;93.50
2867;DHT22;1441;48.886;8.728;2023-03-24T17:57:37;12.10;94.30
2867;DHT22;1441;48.886;8.728;2023-03-24T18:00:03;12.10;93.50
2867;DHT22;1441;48.886;8.728;2023-03-24T18:02:35;12.10;93.00
2867;DHT22;1441;48.886;8.728;2023-03-24T18:05:00;12.10;93.20
2867;DHT22;1441;48.886;8.728;2023-03-24T18:07:26;11.90;94.50
2867;DHT22;1441;48.886;8.728;2023-03-24T18:09:52;11.80;95.30
2867;DHT22;1441;48.886;8.728;2023-03-24T18:12:17;11.80;95.00
2867;DHT22;1441;48.886;8.728;2023-03-24T18:14:44;11.70;95.60
2867;DHT22;1441;48.886;8.728;2023-03-24T18:17:10;11.70;95.20
2867;DHT22;1441;48.886;8.728;2023-03-24T18:19:36;11.50;96.30
2867;DHT22;1441;48.886;8.728;2023-03-24T18:22:02;11.50;95.50
2867;DHT22;1441;48.886;8.728;2023-03-24T18:24:28;11.60;94.30
2867;DHT22;1441;48.886;8.728;2023-03-24T18:26:54;11.70;93.70
2867;DHT22;1441;48.886;8.728;2023-03-24T18:29:19;11.60;94.70
2867;DHT22;1441;48.886;8.728;2023-03-24T18:31:49;11.40;95.80
2867;DHT22;1441;48.886;8.728;2023-03-24T18:34:15;11.30;96.50
2867;DHT22;1441;48.886;8.728;2023-03-24T18:36:42;11.30;96.60
2867;DHT22;1441;48.886;8.728;2023-03-24T18:39:11;11.20;96.30
2867;DHT22;1441;48.886;8.728;2023-03-24T18:41:38;11.10;96.30
2867;DHT22;1441;48.886;8.728;2023-03-24T18:44:13;11.20;95.90
2867;DHT22;1441;48.886;8.728;2023-03-24T18:46:40;11.30;94.40
2867;DHT22;1441;48.886;8.728;2023-03-24T18:49:06;11.30;94.40
2867;DHT22;1441;48.886;8.728;2023-03-24T18:51:32;11.20;95.30
2867;DHT22;1441;48.886;8.728;2023-03-24T18:53:58;11.20;94.40
2867;DHT22;1441;48.886;8.728;2023-03-24T18:56:24;11.20;94.00
2867;DHT22;1441;48.886;8.728;2023-03-24T18:58:49;11.20;93.30
2867;DHT22;1441;48.886;8.728;2023-03-24T19:01:17;11.30;93.30
2867;DHT22;1441;48.886;8.728;2023-03-24T19:03:47;11.30;93.10
2867;DHT22;1441;48.886;8.728;2023-03-24T19:06:14;11.30;93.30
2867;DHT22;1441;48.886;8.728;2023-03-24T19:08:42;11.30;93.40
2867;DHT22;1441;48.886;8.728;2023-03-24T19:11:10;11.20;93.20
2867;DHT22;1441;48.886;8.728;2023-03-24T19:13:36;11.20;92.90
2867;DHT22;1441;48.886;8.728;2023-03-24T19:16:03;11.20;92.90
2867;DHT22;1441;48.886;8.728;2023-03-24T19:18:29;11.30;92.10